Time;durP1;ratioP1;P1;durP2;ratioP2;P2;SDS_P1;SDS_P2;PMS_P1;PMS_P2;Temp;Humidity;BMP_temperature;BMP_pressure;BME280_temperature;BME280_humidity;BME280_pressure;Samples;Min_cycle;Max_cycle;Signal;HPM_P1;HPM_P2
2021/03/08 00:01:20;;;;;;;12.20;9.95;;;;;;;1.52;73.42;98531.01;1803891;79;20931;-59
2021/03/08 00:03:47;;;;;;;18.07;10.85;;;;;;;1.51;73.51;98528.86;1770298;79;21380;-58
2021/03/08 00:06:15;;;;;;;13.38;11.73;;;;;;;1.52;73.93;98527.08;1746298;79;20941;-57
2021/03/08 00:08:44;;;;;;;11.48;10.00;;;;;;;1.49;74.28;98524.72;1751224;79;20949;-58
2021/03/08 00:11:12;;;;;;;12.98;9.80;;;;;;;1.46;74.68;98518.47;1788227;79;21092;-57
2021/03/08 00:13:39;;;;;;;11.40;9.55;;;;;;;1.45;74.95;98512.39;1779118;79;21005;-57
2021/03/08 00:16:07;;;;;;;12.35;10.35;;;;;;;1.43;75.24;98512.19;1754749;79;21375;-57
2021/03/08 00:18:35;;;;;;;13.30;10.35;;;;;;;1.42;75.55;98510.52;1786809;79;21084;-57
2021/03/08 00:21:04;;;;;;;11.73;9.65;;;;;;;1.40;75.76;98507.21;1800971;78;20982;-58
2021/03/08 00:23:32;;;;;;;12.25;10.18;;;;;;;1.39;75.95;98505.55;1795142;78;21037;-58
2021/03/08 00:25:59;;;;;;;13.08;10.48;;;;;;;1.37;76.07;98497.83;1816988;78;21119;-59
2021/03/08 00:28:27;;;;;;;11.70;10.25;;;;;;;1.38;76.29;98503.91;1816335;78;21536;-58
2021/03/08 00:30:54;;;;;;;12.10;10.08;;;;;;;1.39;76.34;98502.92;1740774;81;21116;-58
2021/03/08 00:33:23;;;;;;;14.47;10.53;;;;;;;1.38;76.52;98496.05;1770657;80;21017;-57
2021/03/08 00:35:51;;;;;;;15.03;11.08;;;;;;;1.36;76.75;98500.09;1813425;78;21079;-58
2021/03/08 00:38:18;;;;;;;17.07;12.50;;;;;;;1.36;76.93;98492.70;1809728;78;21099;-58
2021/03/08 00:40:45;;;;;;;21.10;13.20;;;;;;;1.35;77.15;98495.00;1802943;78;21480;-59
2021/03/08 00:43:13;;;;;;;15.65;11.03;;;;;;;1.32;77.61;98494.79;1800079;78;21163;-58
2021/03/08 00:45:41;;;;;;;15.72;11.30;;;;;;;1.30;78.02;98495.41;1787333;79;21104;-60
2021/03/08 00:48:09;;;;;;;12.35;9.90;;;;;;;1.26;78.70;98496.63;1807762;78;21106;-59
2021/03/08 00:50:38;;;;;;;13.32;10.45;;;;;;;1.18;79.27;98489.45;1803473;78;21550;-59
2021/03/08 00:53:07;;;;;;;13.88;10.88;;;;;;;1.10;80.37;98487.98;1807751;79;21747;-59
2021/03/08 00:55:36;;;;;;;15.95;11.97;;;;;;;1.01;80.98;98492.74;1815347;78;21157;-56
2021/03/08 00:58:04;;;;;;;12.00;9.80;;;;;;;0.95;82.13;98485.41;1810758;78;20909;-58
2021/03/08 01:00:31;;;;;;;13.80;11.03;;;;;;;0.92;82.83;98479.59;1812564;78;21123;-59
2021/03/08 01:03:04;;;;;;;12.85;11.10;;;;;;;0.87;83.57;98482.63;1739651;82;21056;-59
2021/03/08 01:05:32;;;;;;;12.00;10.40;;;;;;;0.84;84.34;98484.67;1772735;80;21360;-57
2021/03/08 01:08:04;;;;;;;14.30;11.73;;;;;;;0.81;85.36;98481.04;1815153;78;20925;-57
2021/03/08 01:10:34;;;;;;;16.67;12.03;;;;;;;0.76;85.46;98481.42;1812587;78;21073;-58
2021/03/08 01:13:03;;;;;;;14.60;11.97;;;;;;;0.75;85.79;98478.47;1805249;78;21078;-56
2021/03/08 01:15:33;;;;;;;15.98;13.45;;;;;;;0.77;85.99;98482.25;1790302;78;20915;-57
2021/03/08 01:18:00;;;;;;;23.05;14.53;;;;;;;0.74;86.29;98470.25;1752518;78;23439;-57
2021/03/08 01:20:28;;;;;;;23.67;14.33;;;;;;;0.74;86.41;98474.66;1746055;79;21064;-59
2021/03/08 01:22:55;;;;;;;21.80;14.07;;;;;;;0.72;86.76;98475.28;1768959;79;20993;-58
2021/03/08 01:25:29;;;;;;;18.25;12.70;;;;;;;0.69;87.04;98465.90;1785598;79;21045;-59
2021/03/08 01:27:58;;;;;;;13.83;11.57;;;;;;;0.70;87.14;98470.66;1745933;79;21134;-58
2021/03/08 01:30:38;;;;;;;15.90;12.10;;;;;;;0.70;87.37;98462.81;1746433;79;21362;-57
2021/03/08 01:33:08;;;;;;;14.33;12.28;;;;;;;0.71;87.64;98468.37;1760047;79;21609;-58
2021/03/08 01:35:37;;;;;;;15.08;12.65;;;;;;;0.70;87.84;98464.95;1750566;79;21079;-59
2021/03/08 01:38:04;;;;;;;16.85;13.00;;;;;;;0.72;88.00;98466.95;1793693;79;21140;-57
2021/03/08 01:40:34;;;;;;;14.53;13.03;;;;;;;0.72;88.13;98463.02;1759596;79;21119;-58
2021/03/08 01:43:01;;;;;;;16.75;12.82;;;;;;;0.75;88.20;98464.07;1802339;79;22134;-57
2021/03/08 01:45:29;;;;;;;17.85;12.98;;;;;;;0.77;88.36;98458.21;1762599;79;21127;-59
2021/03/08 01:47:57;;;;;;;14.28;11.93;;;;;;;0.80;88.45;98463.66;1792366;79;20982;-58
2021/03/08 01:50:29;;;;;;;14.45;12.03;;;;;;;0.80;88.48;98454.02;1766040;79;21123;-59
2021/03/08 01:52:57;;;;;;;17.55;13.03;;;;;;;0.81;88.61;98451.73;1763294;79;21163;-59
2021/03/08 01:55:26;;;;;;;18.27;14.98;;;;;;;0.83;88.70;98452.92;1746437;79;21195;-58
2021/03/08 01:57:54;;;;;;;17.40;14.10;;;;;;;0.81;88.70;98454.34;1765557;79;21206;-59
2021/03/08 02:00:23;;;;;;;16.52;13.58;;;;;;;0.81;88.81;98460.09;1793545;79;20986;-57
2021/03/08 02:02:51;;;;;;;14.35;12.47;;;;;;;0.82;88.95;98462.56;1794805;79;21591;-58
2021/03/08 02:05:23;;;;;;;15.85;13.83;;;;;;;0.83;89.04;98462.92;1793570;79;21128;-56
2021/03/08 02:07:51;;;;;;;15.20;12.45;;;;;;;0.84;89.05;98463.25;1760361;79;21359;-59
2021/03/08 02:10:18;;;;;;;15.98;12.60;;;;;;;0.82;89.22;98457.33;1784504;79;21155;-57
2021/03/08 02:13:11;;;;;;;16.10;14.03;;;;;;;0.82;89.20;98464.34;1800997;78;21105;-57
2021/03/08 02:16:04;;;;;;;17.10;12.95;;;;;;;0.81;89.42;98459.59;1758012;79;21132;-57
2021/03/08 02:18:58;;;;;;;14.28;11.65;;;;;;;0.80;89.61;98459.26;1747834;79;21079;-59
2021/03/08 02:22:03;;;;;;;16.07;13.53;;;;;;;0.79;89.76;98455.45;1755266;79;21201;-59
2021/03/08 02:24:57;;;;;;;16.60;12.50;;;;;;;0.79;89.91;98458.90;1768347;79;21036;-57
2021/03/08 02:28:12;;;;;;;13.45;10.95;;;;;;;0.82;90.11;98462.56;1782786;79;21028;-58
2021/03/08 02:30:49;;;;;;;15.72;13.08;;;;;;;0.82;90.15;98463.04;1798858;79;21158;-58
2021/03/08 02:33:27;;;;;;;14.78;13.22;;;;;;;0.82;90.21;98462.56;1799867;79;21139;-58
2021/03/08 02:35:58;;;;;;;17.37;14.18;;;;;;;0.81;90.15;98466.13;1796015;79;21379;-58
2021/03/08 02:38:35;;;;;;;14.95;12.40;;;;;;;0.81;90.24;98470.06;1801144;79;21158;-58
2021/03/08 02:41:10;;;;;;;12.90;11.35;;;;;;;0.79;90.55;98466.75;1801802;79;21558;-57
2021/03/08 02:43:45;;;;;;;18.17;13.47;;;;;;;0.80;90.81;98472.35;1793511;79;21142;-59
2021/03/08 02:46:19;;;;;;;16.95;12.63;;;;;;;0.80;90.70;98469.73;1795125;79;21040;-57
2021/03/08 02:48:47;;;;;;;13.70;11.22;;;;;;;0.80;90.66;98472.35;1799366;79;21195;-57
2021/03/08 02:51:16;;;;;;;13.80;12.07;;;;;;;0.79;90.65;98468.06;1799513;79;21150;-59
2021/03/08 02:53:45;;;;;;;13.93;12.10;;;;;;;0.80;90.65;98471.52;1799546;79;21095;-59
2021/03/08 02:56:15;;;;;;;16.02;13.18;;;;;;;0.81;90.64;98473.98;1763915;79;21158;-58
2021/03/08 02:58:45;;;;;;;15.53;12.53;;;;;;;0.83;90.70;98473.40;1800058;79;21600;-58
2021/03/08 03:01:13;;;;;;;16.57;12.10;;;;;;;0.85;90.66;98481.11;1797036;79;21308;-57
2021/03/08 03:03:46;;;;;;;13.25;11.25;;;;;;;0.84;90.70;98477.66;1770541;79;21110;-57
2021/03/08 03:06:14;;;;;;;13.30;11.95;;;;;;;0.86;90.77;98478.84;1796689;79;21142;-58
2021/03/08 03:08:42;;;;;;;14.47;12.55;;;;;;;0.88;90.77;98475.61;1798938;79;21200;-59
2021/03/08 03:11:11;;;;;;;16.05;13.93;;;;;;;0.86;90.70;98475.72;1798293;79;21098;-58
2021/03/08 03:13:42;;;;;;;18.07;12.40;;;;;;;0.87;90.70;98476.55;1792589;79;21322;-58
2021/03/08 03:16:09;;;;;;;14.10;12.15;;;;;;;0.88;90.67;98485.61;1770162;79;20984;-56
2021/03/08 03:18:37;;;;;;;15.85;11.75;;;;;;;0.89;90.61;98484.63;1785756;79;21179;-57
2021/03/08 03:21:06;;;;;;;14.95;12.50;;;;;;;0.92;90.62;98487.45;1767686;79;21198;-58
2021/03/08 03:23:37;;;;;;;14.63;11.03;;;;;;;0.92;90.60;98492.22;1770414;79;21098;-56
2021/03/08 03:26:07;;;;;;;14.07;11.22;;;;;;;0.95;90.70;98491.95;1781971;79;21467;-58
2021/03/08 03:28:35;;;;;;;12.68;10.88;;;;;;;0.94;90.68;98491.59;1781185;78;20942;-58
2021/03/08 03:31:03;;;;;;;11.00;9.80;;;;;;;0.93;90.86;98496.51;1791673;78;20935;-58
2021/03/08 03:33:31;;;;;;;11.90;10.38;;;;;;;0.93;90.90;98496.51;1790313;79;21001;-58
2021/03/08 03:35:59;;;;;;;13.28;11.25;;;;;;;0.92;90.86;98492.22;1771872;78;21125;-57
2021/03/08 03:38:27;;;;;;;13.13;10.82;;;;;;;0.90;90.91;98499.39;1770275;79;22015;-60
2021/03/08 03:40:55;;;;;;;7.70;6.80;;;;;;;0.86;90.95;98505.84;1774593;78;21082;-57
2021/03/08 03:43:23;;;;;;;6.58;5.75;;;;;;;0.83;90.56;98515.30;1770294;79;21046;-58
2021/03/08 03:45:53;;;;;;;6.85;5.08;;;;;;;0.76;89.40;98506.29;1770310;79;21129;-57
2021/03/08 03:48:21;;;;;;;4.45;4.05;;;;;;;0.72;88.29;98519.30;1774497;78;21117;-58
2021/03/08 03:50:48;;;;;;;7.15;3.62;;;;;;;0.68;86.95;98523.13;1777098;78;21350;-57
2021/03/08 03:53:16;;;;;;;4.72;2.90;;;;;;;0.55;84.70;98524.66;1770184;78;20900;-59
2021/03/08 03:55:43;;;;;;;3.40;2.70;;;;;;;0.43;83.68;98528.81;1770267;78;21109;-58
2021/03/08 03:58:34;;;;;;;3.47;2.10;;;;;;;0.32;83.14;98531.02;1770349;79;21172;-57
2021/03/08 04:01:06;;;;;;;4.58;3.02;;;;;;;0.27;83.02;98532.36;1777072;79;21165;-57
2021/03/08 04:04:05;;;;;;;4.92;2.47;;;;;;;0.23;83.00;98536.20;1770378;79;22336;-57
2021/03/08 04:06:43;;;;;;;3.15;1.95;;;;;;;0.21;82.53;98543.36;1770183;78;21010;-58
2021/03/08 04:09:11;;;;;;;3.85;2.12;;;;;;;0.16;81.38;98541.61;1795931;78;21191;-58
2021/03/08 04:11:39;;;;;;;8.13;4.03;;;;;;;0.08;80.57;98541.41;1735129;82;21116;-57
2021/03/08 04:14:07;;;;;;;11.60;5.95;;;;;;;-0.02;79.96;98546.08;1745527;80;21140;-58
2021/03/08 04:16:37;;;;;;;20.97;8.80;;;;;;;-0.06;79.74;98547.77;1681613;82;21362;-59
2021/03/08 04:19:05;;;;;;;25.17;10.43;;;;;;;-0.11;79.44;98547.33;1780583;78;20982;-57
2021/03/08 04:21:37;;;;;;;30.70;12.60;;;;;;;-0.14;79.47;98550.19;1799720;78;21108;-58
2021/03/08 04:24:06;;;;;;;20.62;9.85;;;;;;;-0.16;79.58;98543.76;1767775;78;21551;-58
2021/03/08 04:26:38;;;;;;;19.07;8.48;;;;;;;-0.16;79.42;98542.45;1774155;78;21566;-59
2021/03/08 04:29:07;;;;;;;17.17;7.40;;;;;;;-0.19;79.47;98545.34;1731247;78;21391;-59
2021/03/08 04:31:37;;;;;;;11.28;6.08;;;;;;;-0.19;79.62;98551.05;1775545;79;21158;-58
2021/03/08 04:34:05;;;;;;;7.12;3.75;;;;;;;-0.20;79.61;98550.20;1754593;78;20989;-57
2021/03/08 04:36:32;;;;;;;4.60;2.55;;;;;;;-0.22;79.60;98549.52;1754567;79;21167;-57
2021/03/08 04:39:00;;;;;;;2.40;1.67;;;;;;;-0.21;79.67;98558.99;1757856;78;21151;-59
2021/03/08 04:41:28;;;;;;;2.75;1.30;;;;;;;-0.23;79.48;98560.91;1814059;78;21431;-58
2021/03/08 04:43:57;;;;;;;2.27;1.50;;;;;;;-0.25;79.19;98556.76;1799306;78;21062;-58
2021/03/08 04:46:24;;;;;;;2.42;1.27;;;;;;;-0.25;79.12;98565.44;1784313;79;20925;-58
2021/03/08 04:48:53;;;;;;;5.00;1.80;;;;;;;-0.26;78.94;98561.66;1761551;78;21186;-57
2021/03/08 04:51:21;;;;;;;4.37;1.95;;;;;;;-0.27;78.83;98568.66;1779571;78;21128;-59
2021/03/08 04:53:48;;;;;;;4.28;2.05;;;;;;;-0.27;78.60;98568.66;1773358;78;21437;-58
2021/03/08 04:56:17;;;;;;;4.28;2.22;;;;;;;-0.29;78.37;98577.11;1751336;79;21074;-59
2021/03/08 04:58:45;;;;;;;4.80;2.75;;;;;;;-0.33;78.10;98577.45;1763727;78;21168;-58
2021/03/08 05:01:12;;;;;;;4.53;2.05;;;;;;;-0.34;78.20;98581.84;1767538;78;21099;-59
2021/03/08 05:03:40;;;;;;;5.95;2.92;;;;;;;-0.32;78.20;98593.03;1778879;79;21179;-59
2021/03/08 05:06:09;;;;;;;3.50;2.30;;;;;;;-0.31;78.11;98588.61;1770807;78;21205;-59
2021/03/08 05:08:36;;;;;;;2.50;1.75;;;;;;;-0.30;78.01;98589.81;1754581;79;20941;-58
2021/03/08 05:11:04;;;;;;;3.67;2.10;;;;;;;-0.31;77.95;98590.75;1770241;78;21115;-57
2021/03/08 05:13:31;;;;;;;4.25;2.10;;;;;;;-0.33;77.80;98592.67;1766921;79;21190;-58
2021/03/08 05:16:00;;;;;;;2.35;2.05;;;;;;;-0.35;77.72;98597.20;1780224;79;21105;-58
2021/03/08 05:18:28;;;;;;;2.37;2.00;;;;;;;-0.37;77.45;98589.97;1720760;81;21207;-57
2021/03/08 05:20:56;;;;;;;4.72;1.70;;;;;;;-0.37;77.47;98593.89;1802951;78;20996;-58
2021/03/08 05:23:24;;;;;;;3.15;1.87;;;;;;;-0.36;77.41;98584.23;1780658;79;21136;-59
2021/03/08 05:25:52;;;;;;;3.22;1.40;;;;;;;-0.33;77.49;98590.05;1782787;79;20993;-57
2021/03/08 05:28:19;;;;;;;2.65;1.22;;;;;;;-0.30;77.35;98588.51;1777973;79;21123;-58
2021/03/08 05:30:49;;;;;;;2.87;1.32;;;;;;;-0.28;77.16;98597.05;1811763;78;21361;-58
2021/03/08 05:33:25;;;;;;;4.53;2.42;;;;;;;-0.27;76.81;98596.11;1759727;80;21145;-59
2021/03/08 05:35:57;;;;;;;3.10;1.82;;;;;;;-0.25;76.83;98603.34;1801636;78;21642;-58
2021/03/08 05:38:26;;;;;;;2.75;1.40;;;;;;;-0.24;76.77;98603.70;1780656;79;21162;-58
2021/03/08 05:41:05;;;;;;;3.08;1.65;;;;;;;-0.24;76.84;98615.47;1800275;78;21084;-58
2021/03/08 05:43:36;;;;;;;2.90;1.70;;;;;;;-0.19;76.62;98607.25;1778999;79;22287;-59
2021/03/08 05:46:10;;;;;;;2.90;1.10;;;;;;;-0.14;76.29;98612.46;1793190;79;21632;-57
2021/03/08 05:49:10;;;;;;;2.77;1.72;;;;;;;-0.13;75.85;98623.75;1797098;78;20994;-59
2021/03/08 05:52:15;;;;;;;2.37;1.32;;;;;;;-0.13;75.21;98619.83;1738274;81;21187;-58
2021/03/08 05:55:33;;;;;;;2.72;1.50;;;;;;;-0.12;74.70;98630.16;1765354;80;21037;-56
2021/03/08 05:58:32;;;;;;;2.10;1.42;;;;;;;-0.11;74.35;98626.59;1740160;82;21400;-57
2021/03/08 06:01:38;;;;;;;3.62;2.42;;;;;;;-0.05;74.20;98633.92;1695285;81;21021;-58
2021/03/08 06:04:29;;;;;;;5.20;2.62;;;;;;;0.00;73.18;98650.06;1751939;81;21014;-59
2021/03/08 06:07:23;;;;;;;5.65;3.27;;;;;;;0.05;72.40;98645.80;1724239;81;21083;-58
2021/03/08 06:10:04;;;;;;;5.20;3.58;;;;;;;0.09;71.16;98658.13;1726504;81;21131;-58
2021/03/08 06:12:36;;;;;;;6.25;3.67;;;;;;;0.11;70.22;98659.66;1724515;81;21358;-58
2021/03/08 06:15:10;;;;;;;4.05;2.42;;;;;;;0.22;69.73;98662.71;1725627;81;21625;-59
2021/03/08 06:17:38;;;;;;;3.08;2.05;;;;;;;0.35;69.05;98664.20;1739256;81;21125;-57
2021/03/08 06:20:08;;;;;;;3.85;2.30;;;;;;;0.46;67.77;98663.33;1742619;80;21143;-57
2021/03/08 06:22:36;;;;;;;2.30;1.70;;;;;;;0.63;67.31;98664.89;1708066;82;21606;-59
2021/03/08 06:25:06;;;;;;;2.00;1.57;;;;;;;1.06;67.20;98666.05;1706830;82;21392;-59
2021/03/08 06:27:33;;;;;;;2.85;1.75;;;;;;;1.70;66.71;98673.11;1705344;82;21176;-59
2021/03/08 06:30:01;;;;;;;4.45;2.30;;;;;;;2.40;65.11;98666.35;1710550;82;21132;-60
2021/03/08 06:32:29;;;;;;;3.52;2.15;;;;;;;3.05;63.06;98671.33;1692241;81;21215;-59
2021/03/08 06:34:57;;;;;;;5.65;2.50;;;;;;;3.71;60.31;98659.70;1723571;82;21141;-58
2021/03/08 06:37:26;;;;;;;9.53;4.12;;;;;;;4.27;58.95;98658.64;1729018;81;21387;-58
2021/03/08 06:39:54;;;;;;;4.83;3.55;;;;;;;4.83;57.35;98664.38;1725275;81;21587;-59
2021/03/08 06:42:22;;;;;;;4.53;2.87;;;;;;;5.37;56.50;98660.58;1721656;82;21145;-61
2021/03/08 06:47:29;;;;;;;2.72;2.08;;;;;;;6.73;53.98;98657.16;1813132;78;22808;-59
2021/03/08 06:49:57;;;;;;;1.50;1.40;;;;;;;7.22;53.02;98651.33;1781545;79;21551;-59
2021/03/08 06:52:39;;;;;;;2.90;2.02;;;;;;;7.63;51.36;98655.50;1778910;77;21378;-60
2021/03/08 06:55:08;;;;;;;2.17;1.62;;;;;;;7.97;49.03;98651.20;1754831;79;20978;-59
2021/03/08 06:57:36;;;;;;;2.37;2.17;;;;;;;8.34;48.78;98656.62;1786228;79;21068;-64
2021/03/08 07:00:09;;;;;;;4.08;3.33;;;;;;;8.61;46.87;98656.11;1777869;79;21580;-60
2021/03/08 07:02:40;;;;;;;4.78;3.83;;;;;;;8.87;46.82;98662.86;1782689;77;21104;-59
2021/03/08 07:05:24;;;;;;;4.55;3.15;;;;;;;9.35;46.40;98665.06;1787999;79;22315;-61
2021/03/08 07:08:00;;;;;;;4.60;3.30;;;;;;;9.90;45.34;98658.77;1777734;78;21014;-60
2021/03/08 07:10:42;;;;;;;3.12;2.70;;;;;;;10.54;43.46;98654.90;1777086;79;21581;-60
2021/03/08 07:13:12;;;;;;;3.22;2.12;;;;;;;10.81;41.12;98647.99;1778169;79;20946;-62
2021/03/08 07:15:58;;;;;;;2.90;1.77;;;;;;;10.71;41.17;98653.65;1782254;79;21152;-63
2021/03/08 07:18:26;;;;;;;2.47;1.75;;;;;;;10.69;40.37;98652.98;1777779;79;21351;-62
2021/03/08 07:21:10;;;;;;;2.00;1.80;;;;;;;10.49;39.65;98650.16;1786311;78;21112;-62
2021/03/08 07:23:39;;;;;;;2.37;1.62;;;;;;;10.46;40.33;98659.00;1786108;79;20993;-61
2021/03/08 07:26:25;;;;;;;2.30;1.50;;;;;;;10.48;39.41;98651.69;1806118;79;21081;-62
2021/03/08 07:29:11;;;;;;;2.15;1.30;;;;;;;10.46;40.08;98653.69;1783196;79;21147;-62
2021/03/08 07:31:41;;;;;;;1.55;1.15;;;;;;;10.66;39.81;98650.73;1781932;79;22050;-62
2021/03/08 07:34:09;;;;;;;1.37;1.00;;;;;;;10.78;38.43;98657.18;1786695;79;20990;-61
2021/03/08 07:36:56;;;;;;;1.40;1.07;;;;;;;10.62;37.57;98660.59;1783587;79;20985;-62
2021/03/08 07:39:24;;;;;;;2.22;1.20;;;;;;;10.56;37.76;98656.85;1774687;78;20985;-61
2021/03/08 07:41:56;;;;;;;1.40;1.30;;;;;;;10.60;38.47;98654.15;1782508;79;21041;-62
2021/03/08 07:44:26;;;;;;;2.37;1.85;;;;;;;10.74;37.75;98653.23;1788001;79;21539;-62
2021/03/08 07:46:56;;;;;;;1.32;1.22;;;;;;;10.86;37.83;98649.06;1786904;79;21021;-59
2021/03/08 07:49:36;;;;;;;2.58;1.72;;;;;;;11.05;37.18;98651.05;1781352;79;20969;-60
2021/03/08 07:52:10;;;;;;;3.40;2.00;;;;;;;11.34;37.62;98656.69;1786578;79;20997;-62
2021/03/08 07:55:00;;;;;;;1.95;1.20;;;;;;;11.81;36.89;98657.30;1789539;79;21076;-62
2021/03/08 07:57:29;;;;;;;2.30;1.27;;;;;;;11.85;35.44;98655.06;1784282;79;21398;-61
2021/03/08 07:59:57;;;;;;;2.30;1.77;;;;;;;11.82;35.45;98653.62;1785903;79;20991;-60
2021/03/08 08:02:24;;;;;;;3.27;1.67;;;;;;;11.85;35.77;98656.39;1795266;79;21013;-64
2021/03/08 08:04:54;;;;;;;1.85;0.90;;;;;;;11.94;36.05;98654.69;1787380;79;20941;-64
2021/03/08 08:07:22;;;;;;;1.77;1.00;;;;;;;11.98;35.24;98655.95;1793326;79;20969;-62
2021/03/08 08:09:49;;;;;;;1.65;1.05;;;;;;;11.89;34.71;98650.47;1801670;79;21349;-62
2021/03/08 08:12:20;;;;;;;1.62;1.10;;;;;;;11.85;35.13;98655.89;1789528;79;21127;-62
2021/03/08 08:14:52;;;;;;;2.47;1.35;;;;;;;12.01;35.12;98655.56;1782563;79;21000;-61
2021/03/08 08:17:21;;;;;;;1.52;1.30;;;;;;;11.99;34.36;98660.78;1783063;79;21127;-60
2021/03/08 08:19:49;;;;;;;3.37;1.10;;;;;;;11.81;34.39;98657.30;1786931;79;21040;-63
2021/03/08 08:22:23;;;;;;;1.45;1.27;;;;;;;11.69;34.05;98668.20;1788870;79;21467;-61
2021/03/08 08:24:53;;;;;;;1.95;1.45;;;;;;;11.63;34.46;98666.28;1796920;77;21025;-61
2021/03/08 08:27:21;;;;;;;2.00;1.55;;;;;;;11.85;34.37;98659.89;1791839;77;21009;-60
2021/03/08 08:29:50;;;;;;;2.52;1.45;;;;;;;11.93;34.50;98659.73;1800691;78;21068;-61
2021/03/08 08:32:18;;;;;;;2.22;1.77;;;;;;;12.17;34.13;98659.72;1786712;79;21044;-63
2021/03/08 08:34:48;;;;;;;3.27;1.40;;;;;;;12.51;33.71;98658.78;1792991;77;21358;-60
2021/03/08 08:37:19;;;;;;;3.50;1.65;;;;;;;12.58;32.79;98663.62;1789746;79;20961;-60
2021/03/08 08:39:58;;;;;;;2.20;1.30;;;;;;;12.66;32.84;98661.59;1791870;77;20938;-61
2021/03/08 08:42:29;;;;;;;3.50;1.70;;;;;;;12.82;32.29;98657.20;1802715;79;20910;-60
2021/03/08 08:44:58;;;;;;;2.22;1.77;;;;;;;12.78;31.61;98662.62;1790953;77;20906;-58
2021/03/08 08:47:34;;;;;;;3.33;1.57;;;;;;;12.87;32.19;98661.41;1803216;77;21359;-60
2021/03/08 08:50:06;;;;;;;4.12;1.20;;;;;;;12.98;31.39;98667.98;1802544;79;21591;-59
2021/03/08 08:52:55;;;;;;;1.32;1.00;;;;;;;13.08;31.32;98662.26;1790348;79;21796;-59
2021/03/08 08:55:39;;;;;;;1.42;1.20;;;;;;;13.17;31.57;98665.84;1794505;79;21017;-60
2021/03/08 08:58:31;;;;;;;1.50;1.07;;;;;;;13.43;30.32;98659.14;1787642;79;21566;-62
2021/03/08 09:01:21;;;;;;;3.12;1.87;;;;;;;13.58;30.88;98669.08;1785118;79;21185;-60
2021/03/08 09:03:58;;;;;;;2.47;1.60;;;;;;;13.73;29.60;98666.69;1790794;77;21151;-59
2021/03/08 09:06:48;;;;;;;2.70;1.25;;;;;;;13.54;29.86;98663.86;1798837;79;21158;-60
2021/03/08 09:09:23;;;;;;;2.80;1.07;;;;;;;13.62;29.50;98670.83;1785601;79;20981;-60
2021/03/08 09:11:56;;;;;;;1.67;1.00;;;;;;;13.57;29.17;98664.78;1799668;77;21176;-60
2021/03/08 09:14:29;;;;;;;2.52;0.90;;;;;;;13.54;29.03;98659.02;1757504;77;21351;-60
2021/03/08 09:17:19;;;;;;;0.93;0.72;;;;;;;13.37;28.78;98657.83;1785700;78;20941;-60
2021/03/08 09:20:01;;;;;;;1.52;1.00;;;;;;;13.23;29.37;98670.38;1789161;79;21024;-62
2021/03/08 09:22:31;;;;;;;0.90;0.80;;;;;;;13.38;29.07;98666.13;1790060;79;21100;-58
2021/03/08 09:25:11;;;;;;;2.55;1.02;;;;;;;13.32;28.98;98669.11;1787818;77;21104;-67
2021/03/08 09:27:42;;;;;;;0.93;0.50;;;;;;;13.27;28.69;98676.92;1787630;79;21453;-62
2021/03/08 09:30:22;;;;;;;1.75;0.80;;;;;;;13.19;29.16;98681.14;1803598;77;21543;-60
2021/03/08 09:33:13;;;;;;;1.10;0.90;;;;;;;13.24;28.99;98672.02;1792109;79;21617;-63
2021/03/08 09:35:51;;;;;;;1.20;1.05;;;;;;;13.01;29.79;98676.39;1799732;79;20938;-62
2021/03/08 09:38:21;;;;;;;0.65;0.65;;;;;;;12.72;29.71;98682.64;1782689;79;21087;-64
2021/03/08 09:40:54;;;;;;;1.22;0.90;;;;;;;12.31;29.46;98690.73;1782671;79;21361;-63
2021/03/08 09:43:27;;;;;;;3.95;0.90;;;;;;;11.86;30.18;98692.20;1788227;77;21006;-66
2021/03/08 09:46:13;;;;;;;1.90;1.37;;;;;;;11.42;30.94;98697.81;1809153;77;21194;-63
2021/03/08 09:48:44;;;;;;;1.98;1.20;;;;;;;10.94;31.39;98700.00;1796059;79;21027;-63
2021/03/08 09:51:14;;;;;;;1.55;1.00;;;;;;;10.31;32.19;98700.78;1801163;79;21033;-62
2021/03/08 09:53:47;;;;;;;1.20;0.95;;;;;;;9.75;32.66;98707.08;1807541;77;21189;-62
2021/03/08 09:56:18;;;;;;;1.75;1.10;;;;;;;9.25;32.99;98720.24;1803628;77;20929;-61
2021/03/08 09:58:45;;;;;;;4.20;1.07;;;;;;;8.68;33.87;98717.23;1788397;79;20957;-62
2021/03/08 10:01:18;;;;;;;1.87;1.37;;;;;;;8.20;34.84;98716.15;1795332;79;21120;-60
2021/03/08 10:03:48;;;;;;;3.33;2.75;;;;;;;7.85;35.33;98721.42;1748292;80;21466;-64
2021/03/08 10:06:28;;;;;;;2.08;1.77;;;;;;;7.46;36.19;98726.66;1750132;79;21359;-60
2021/03/08 10:08:57;;;;;;;2.10;1.62;;;;;;;7.28;36.71;98732.16;1719828;80;21519;-62
2021/03/08 10:11:28;;;;;;;1.80;1.37;;;;;;;7.49;37.33;98723.69;1799733;79;21564;-63
2021/03/08 10:13:57;;;;;;;1.95;0.75;;;;;;;7.90;37.48;98729.70;1792907;79;21530;-66
2021/03/08 10:16:28;;;;;;;1.87;1.20;;;;;;;8.35;35.82;98717.08;1786019;77;20981;-62
2021/03/08 10:19:09;;;;;;;1.47;0.88;;;;;;;8.65;35.82;98710.95;1739714;82;21211;-64
2021/03/08 10:21:43;;;;;;;1.85;1.07;;;;;;;9.07;35.97;98722.39;1719461;82;21166;-62
2021/03/08 10:24:11;;;;;;;1.77;1.22;;;;;;;9.50;34.57;98720.31;1742653;81;21178;-60
2021/03/08 10:26:45;;;;;;;1.77;1.47;;;;;;;9.67;32.94;98714.34;1730400;81;21036;-66
2021/03/08 10:29:15;;;;;;;2.20;1.30;;;;;;;9.25;33.37;98720.24;1726898;82;21140;-63
2021/03/08 10:31:42;;;;;;;1.25;1.00;;;;;;;9.00;34.38;98722.27;1736018;81;21143;-67
2021/03/08 10:34:10;;;;;;;1.92;1.07;;;;;;;8.86;34.55;98723.55;1693776;80;21174;-63
2021/03/08 10:36:39;;;;;;;3.22;1.20;;;;;;;8.64;34.93;98731.33;1723935;80;21006;-65
2021/03/08 10:39:09;;;;;;;2.02;0.80;;;;;;;8.48;35.22;98730.09;1752899;80;21186;-61
2021/03/08 10:41:37;;;;;;;1.72;1.00;;;;;;;8.32;35.09;98728.86;1793719;79;21554;-62
2021/03/08 10:44:05;;;;;;;2.35;1.32;;;;;;;8.09;34.82;98722.16;1789659;79;21339;-63
2021/03/08 10:46:35;;;;;;;1.55;1.22;;;;;;;7.74;35.34;98731.08;1782499;77;21534;-62
2021/03/08 10:49:08;;;;;;;1.27;1.10;;;;;;;7.46;35.89;98731.95;1790967;77;21129;-65
2021/03/08 10:51:37;;;;;;;1.25;0.95;;;;;;;7.20;36.48;98731.33;1806897;77;20929;-64
2021/03/08 10:54:10;;;;;;;0.95;0.88;;;;;;;6.99;37.05;98731.84;1792004;77;20922;-62
2021/03/08 10:56:43;;;;;;;2.30;0.80;;;;;;;6.88;37.40;98738.80;1784308;79;22315;-64
2021/03/08 10:59:28;;;;;;;3.77;0.90;;;;;;;6.68;37.75;98738.77;1793113;77;21009;-61
2021/03/08 11:02:07;;;;;;;1.30;0.90;;;;;;;6.46;38.26;98742.05;1777601;79;20929;-61
2021/03/08 11:04:34;;;;;;;2.25;0.78;;;;;;;6.31;38.73;98750.27;1782586;79;21569;-62
2021/03/08 11:07:03;;;;;;;4.87;1.50;;;;;;;6.15;39.22;98735.20;1786132;79;21104;-65
2021/03/08 11:09:34;;;;;;;2.67;1.30;;;;;;;6.04;39.46;98733.67;1783514;79;22718;-65
2021/03/08 11:12:04;;;;;;;1.00;0.90;;;;;;;5.92;39.08;98736.25;1793087;77;21535;-69
2021/03/08 11:14:52;;;;;;;3.02;1.25;;;;;;;5.73;39.12;98742.24;1785916;79;21677;-62
2021/03/08 11:17:40;;;;;;;2.10;1.47;;;;;;;5.59;39.40;98735.24;1800864;79;22271;-60
2021/03/08 11:20:19;;;;;;;14.70;1.65;;;;;;;5.53;39.79;98740.30;1794268;79;20989;-59
2021/03/08 11:23:02;;;;;;;2.15;1.32;;;;;;;5.49;39.92;98741.61;1809260;79;21361;-59
2021/03/08 11:25:41;;;;;;;2.15;1.30;;;;;;;5.48;40.19;98737.30;1793596;79;21115;-58
2021/03/08 11:28:16;;;;;;;2.75;1.57;;;;;;;5.48;40.47;98739.95;1790258;79;21154;-62
2021/03/08 11:30:51;;;;;;;6.92;1.20;;;;;;;5.47;40.42;98739.62;1793144;77;21565;-61
2021/03/08 11:33:19;;;;;;;1.42;0.88;;;;;;;5.42;40.58;98736.12;1790915;79;21044;-64
2021/03/08 11:35:51;;;;;;;2.98;1.10;;;;;;;5.35;40.32;98743.48;1799224;79;21418;-60
2021/03/08 11:38:23;;;;;;;5.45;1.72;;;;;;;5.27;40.68;98743.43;1791198;79;21104;-60
2021/03/08 11:40:51;;;;;;;3.10;1.00;;;;;;;5.21;40.88;98745.39;1799000;79;21596;-61
2021/03/08 11:43:23;;;;;;;6.37;1.37;;;;;;;5.16;41.12;98742.39;1797912;79;21124;-60
2021/03/08 11:45:51;;;;;;;2.33;1.40;;;;;;;5.14;40.87;98741.69;1798642;79;21135;-61
2021/03/08 11:48:23;;;;;;;3.40;1.20;;;;;;;5.13;41.88;98733.46;1785545;79;21354;-62
2021/03/08 11:50:52;;;;;;;1.72;0.90;;;;;;;5.12;40.53;98727.84;1785156;79;21589;-61
2021/03/08 11:53:19;;;;;;;1.37;0.80;;;;;;;5.10;40.41;98733.77;1792370;79;21101;-63
2021/03/08 11:55:48;;;;;;;1.60;1.20;;;;;;;5.05;40.47;98722.85;1788081;79;21145;-62
2021/03/08 11:58:19;;;;;;;3.20;1.22;;;;;;;5.00;40.85;98741.26;1767099;79;21069;-63
2021/03/08 12:00:47;;;;;;;1.82;0.88;;;;;;;5.00;40.93;98732.55;1774810;78;21809;-63
2021/03/08 12:03:14;;;;;;;1.57;1.10;;;;;;;5.07;41.28;98719.08;1794953;78;21096;-61